createdAt,value
2018-05-09T00:00:28.814Z,80.07
2018-05-09T00:01:29.043Z,80.36
2018-05-09T00:02:29.263Z,80.46
2018-05-09T00:03:29.517Z,80.17
2018-05-09T00:04:29.734Z,79.83
2018-05-09T00:05:29.976Z,79.41
2018-05-09T00:06:30.215Z,79.73
2018-05-09T00:07:30.461Z,79.31
2018-05-09T00:08:30.686Z,79.35
2018-05-09T00:09:30.922Z,79.54
2018-05-09T00:10:31.165Z,79.35
2018-05-09T00:11:31.409Z,78.49
2018-05-09T00:12:31.632Z,79.16
2018-05-09T00:13:31.853Z,79.35
2018-05-09T00:14:32.111Z,79.54
2018-05-09T00:15:32.315Z,79.35
2018-05-09T00:16:32.564Z,79.06
2018-05-09T00:17:32.794Z,79.25
2018-05-09T00:18:33.041Z,79.88
2018-05-09T00:19:33.279Z,79.88
2018-05-09T00:20:33.508Z,80.27
2018-05-09T00:21:33.749Z,80.17
2018-05-09T00:22:33.987Z,80.74
2018-05-09T00:23:34.213Z,80.74
2018-05-09T00:24:34.454Z,81.03
2018-05-09T00:25:34.710Z,81.13
2018-05-09T00:26:34.939Z,81.32
2018-05-09T00:27:35.185Z,81.41
2018-05-09T00:28:35.421Z,81.22
2018-05-09T00:29:35.633Z,81.22
2018-05-09T00:30:35.897Z,81.41
2018-05-09T00:31:36.150Z,81.22
2018-05-09T00:32:36.373Z,81.51
2018-05-09T00:33:36.608Z,81.85
2018-05-09T00:34:36.852Z,81.47
2018-05-09T00:35:37.091Z,81.85
2018-05-09T00:36:37.356Z,82.14
2018-05-09T00:37:37.611Z,82.81
2018-05-09T00:38:37.844Z,82.90
2018-05-09T00:39:38.080Z,83.38
2018-05-09T00:40:38.366Z,83.09
2018-05-09T00:41:38.605Z,82.61
2018-05-09T00:42:38.825Z,82.71
2018-05-09T00:43:39.083Z,82.81
2018-05-09T00:44:39.301Z,81.85
2018-05-09T00:45:39.554Z,82.81
2018-05-09T00:46:39.815Z,83.47
2018-05-09T00:47:40.030Z,83.09
2018-05-09T00:48:40.267Z,83.47
2018-05-09T00:49:40.518Z,83.38
2018-05-09T00:50:40.734Z,82.52
2018-05-09T00:51:40.985Z,82.81
2018-05-09T00:52:41.212Z,82.76
2018-05-09T00:53:41.483Z,82.90
2018-05-09T00:54:41.702Z,83.62
2018-05-09T00:55:41.944Z,84.29
2018-05-09T00:56:42.182Z,84.86
2018-05-09T00:57:42.394Z,84.77
2018-05-09T00:58:42.652Z,85.34
2018-05-09T00:59:42.882Z,85.05
2018-05-09T01:00:43.124Z,85.91
2018-05-09T01:01:43.355Z,85.82
2018-05-09T01:02:43.606Z,84.96
2018-05-09T01:03:43.834Z,85.05
2018-05-09T01:04:44.071Z,84.20
2018-05-09T01:05:44.329Z,84.10
2018-05-09T01:06:44.569Z,84.10
2018-05-09T01:07:44.796Z,84.00
2018-05-09T01:08:45.014Z,84.43
2018-05-09T01:09:45.256Z,83.43
2018-05-09T01:10:45.514Z,84.20
2018-05-09T01:11:45.724Z,84.20
2018-05-09T01:12:45.961Z,84.29
2018-05-09T01:13:46.214Z,84.39
2018-05-09T01:14:46.423Z,85.25
2018-05-09T01:15:46.671Z,86.01
2018-05-09T01:16:46.905Z,86.39
2018-05-09T01:17:47.146Z,86.68
2018-05-09T01:18:47.391Z,86.49
2018-05-09T01:19:47.643Z,86.49
2018-05-09T01:20:47.865Z,86.82
2018-05-09T01:21:48.108Z,87.06
2018-05-09T01:22:48.337Z,86.82
2018-05-09T01:23:48.592Z,86.54
2018-05-09T01:24:48.811Z,86.44
2018-05-09T01:25:49.069Z,87.30
2018-05-09T01:26:49.284Z,87.11
2018-05-09T01:27:49.547Z,86.54
2018-05-09T01:28:49.752Z,87.68
2018-05-09T01:29:49.995Z,87.02
2018-05-09T01:30:50.247Z,87.78
2018-05-09T01:31:50.490Z,87.59
2018-05-09T01:32:50.695Z,87.49
2018-05-09T01:33:50.950Z,87.59
2018-05-09T01:34:51.177Z,88.16
2018-05-09T01:35:51.416Z,88.54
2018-05-09T01:36:51.662Z,88.35
2018-05-09T01:37:51.898Z,88.07
2018-05-09T01:38:52.157Z,88.35
2018-05-09T01:39:52.369Z,87.87
2018-05-09T01:40:52.657Z,88.16
2018-05-09T01:41:52.869Z,88.35
2018-05-09T01:42:53.113Z,88.35
2018-05-09T01:43:53.323Z,88.35
2018-05-09T01:44:53.573Z,88.54
2018-05-09T01:45:53.794Z,88.92
2018-05-09T01:46:54.055Z,89.02
2018-05-09T01:47:54.272Z,89.02
2018-05-09T01:48:54.504Z,88.64
2018-05-09T01:49:54.739Z,87.82
2018-05-09T01:50:54.988Z,86.49
2018-05-09T01:51:55.215Z,85.10
2018-05-09T01:52:55.461Z,84.81
2018-05-09T01:53:55.683Z,83.86
2018-05-09T01:54:56.007Z,83.67
2018-05-09T01:55:56.186Z,83.57
2018-05-09T01:56:56.406Z,83.38
2018-05-09T01:57:56.632Z,82.81
2018-05-09T01:58:56.862Z,82.71
2018-05-09T01:59:57.117Z,82.81
2018-05-09T02:00:57.358Z,82.81
2018-05-09T02:01:57.586Z,83.09
2018-05-09T02:02:57.829Z,82.81
2018-05-09T02:03:58.060Z,82.90
2018-05-09T02:04:58.293Z,83.43
2018-05-09T02:05:58.564Z,83.53
2018-05-09T02:06:58.756Z,82.90
2018-05-09T02:07:59.011Z,83.47
2018-05-09T02:08:59.230Z,83.43
2018-05-09T02:09:59.464Z,83.53
2018-05-09T02:10:59.703Z,83.62
2018-05-09T02:11:59.935Z,83.43
2018-05-09T02:13:00.180Z,83.72
2018-05-09T02:14:00.448Z,84.67
2018-05-09T02:15:00.671Z,84.44
2018-05-09T02:16:00.878Z,85.11
2018-05-09T02:17:01.104Z,85.77
2018-05-09T02:18:01.364Z,85.39
2018-05-09T02:19:01.598Z,86.44
2018-05-09T02:20:01.849Z,87.30
2018-05-09T02:21:02.084Z,87.97
2018-05-09T02:22:02.316Z,88.35
2018-05-09T02:23:02.568Z,88.35
2018-05-09T02:24:02.893Z,88.07
2018-05-09T02:25:03.044Z,88.07
2018-05-09T02:26:03.283Z,87.59
2018-05-09T02:27:03.537Z,87.02
2018-05-09T02:28:03.742Z,87.30
2018-05-09T02:29:03.988Z,87.02
2018-05-09T02:30:04.217Z,87.78
2018-05-09T02:31:04.503Z,87.78
2018-05-09T02:32:04.699Z,87.78
2018-05-09T02:33:04.967Z,87.40
2018-05-09T02:34:05.176Z,87.40
2018-05-09T02:35:05.425Z,87.97
2018-05-09T02:36:05.660Z,87.40
2018-05-09T02:37:05.886Z,87.40
2018-05-09T02:38:06.125Z,87.59
2018-05-09T02:39:06.365Z,87.64
2018-05-09T02:40:06.606Z,88.07
2018-05-09T02:41:06.859Z,87.54
2018-05-09T02:42:07.079Z,87.74
2018-05-09T02:43:07.328Z,88.31
2018-05-09T02:44:07.557Z,88.12
2018-05-09T02:45:07.792Z,89.54
2018-05-09T02:46:08.022Z,89.83
2018-05-09T02:47:08.264Z,90.41
2018-05-09T02:48:08.518Z,90.59
2018-05-09T02:49:08.725Z,90.69
2018-05-09T02:50:08.979Z,90.79
2018-05-09T02:51:09.214Z,90.69
2018-05-09T02:52:09.447Z,90.69
2018-05-09T02:53:09.690Z,90.41
2018-05-09T02:54:09.944Z,89.83
2018-05-09T02:55:10.172Z,88.73
2018-05-09T02:56:10.398Z,88.26
2018-05-09T02:57:10.641Z,87.49
2018-05-09T02:58:10.867Z,87.40
2018-05-09T02:59:11.109Z,87.11
2018-05-09T03:00:11.329Z,86.82
2018-05-09T03:01:11.580Z,86.63
2018-05-09T03:02:11.826Z,86.82
2018-05-09T03:03:12.057Z,87.59
2018-05-09T03:04:12.304Z,87.49
2018-05-09T03:05:12.552Z,87.21
2018-05-09T03:06:12.786Z,87.68
2018-05-09T03:07:13.031Z,87.30
2018-05-09T03:08:13.301Z,87.78
2018-05-09T03:09:13.513Z,88.40
2018-05-09T03:10:13.755Z,88.31
2018-05-09T03:11:13.970Z,88.98
2018-05-09T03:12:14.226Z,89.45
2018-05-09T03:13:14.478Z,89.45
2018-05-09T03:14:14.719Z,89.83
2018-05-09T03:15:14.936Z,89.74
2018-05-09T03:16:15.168Z,89.74
2018-05-09T03:17:15.398Z,89.93
2018-05-09T03:18:15.637Z,89.83
2018-05-09T03:19:15.880Z,89.93
2018-05-09T03:20:16.127Z,89.45
2018-05-09T03:21:16.358Z,89.74
2018-05-09T03:22:16.594Z,89.45
2018-05-09T03:23:16.846Z,89.45
2018-05-09T03:24:17.070Z,89.74
2018-05-09T03:25:17.313Z,89.26
2018-05-09T03:26:17.554Z,89.36
2018-05-09T03:27:17.796Z,88.98
2018-05-09T03:28:18.029Z,89.26
2018-05-09T03:29:18.261Z,88.40
2018-05-09T03:30:18.505Z,88.98
2018-05-09T03:31:18.734Z,88.98
2018-05-09T03:32:18.976Z,89.07
2018-05-09T03:33:19.225Z,89.36
2018-05-09T03:34:19.444Z,89.07
2018-05-09T03:35:19.692Z,89.45
2018-05-09T03:36:28.263Z,89.64
2018-05-09T03:37:20.252Z,89.64
2018-05-09T03:38:20.494Z,89.83
2018-05-09T03:39:20.718Z,90.41
2018-05-09T03:40:20.947Z,90.12
2018-05-09T03:41:21.201Z,90.08
2018-05-09T03:42:21.416Z,90.26
2018-05-09T03:43:21.664Z,90.45
2018-05-09T03:44:21.898Z,91.22
2018-05-09T03:45:22.153Z,91.03
2018-05-09T03:46:22.393Z,91.60
2018-05-09T03:47:22.647Z,92.27
2018-05-09T03:48:22.889Z,92.93
2018-05-09T03:49:23.091Z,92.46
2018-05-09T03:50:23.351Z,92.74
2018-05-09T03:51:23.574Z,92.36
2018-05-09T03:52:23.831Z,92.46
2018-05-09T03:53:24.110Z,93.70
2018-05-09T03:54:24.319Z,93.03
2018-05-09T03:55:24.553Z,92.93
2018-05-09T03:56:24.802Z,92.93
2018-05-09T03:57:25.019Z,93.32
2018-05-09T03:58:25.249Z,93.51
2018-05-09T03:59:25.576Z,93.51
2018-05-09T04:00:25.725Z,93.79
2018-05-09T04:01:25.964Z,94.08
2018-05-09T04:02:26.204Z,93.32
2018-05-09T04:03:26.446Z,93.32
2018-05-09T04:04:26.676Z,93.51
2018-05-09T04:05:26.912Z,93.51
2018-05-09T04:06:27.147Z,93.32
2018-05-09T04:07:27.388Z,92.41
2018-05-09T04:08:27.638Z,93.12
2018-05-09T04:09:27.875Z,92.12
2018-05-09T04:10:28.089Z,92.50
2018-05-09T04:11:28.323Z,91.83
2018-05-09T04:12:28.569Z,91.64
2018-05-09T04:13:28.787Z,92.03
2018-05-09T04:14:29.029Z,91.64
2018-05-09T04:15:29.256Z,91.46
2018-05-09T04:16:29.499Z,91.64
2018-05-09T04:17:29.720Z,92.08
2018-05-09T04:18:29.970Z,92.46
2018-05-09T04:19:30.192Z,92.65
2018-05-09T04:20:30.446Z,92.36
2018-05-09T04:21:30.691Z,92.65
2018-05-09T04:22:30.923Z,92.22
2018-05-09T04:23:31.153Z,92.79
2018-05-09T04:24:31.382Z,91.74
2018-05-09T04:25:31.639Z,91.55
2018-05-09T04:26:31.868Z,90.98
2018-05-09T04:27:32.113Z,91.27
2018-05-09T04:28:32.349Z,91.36
2018-05-09T04:29:32.579Z,90.69
2018-05-09T04:30:32.822Z,90.69
2018-05-09T04:31:33.072Z,90.41
2018-05-09T04:32:33.298Z,89.93
2018-05-09T04:33:33.531Z,90.22
2018-05-09T04:34:33.788Z,90.50
2018-05-09T04:35:34.027Z,89.93
2018-05-09T04:36:34.256Z,90.12
2018-05-09T04:37:34.478Z,90.22
2018-05-09T04:38:34.754Z,90.59
2018-05-09T04:39:35.017Z,89.74
2018-05-09T04:40:35.215Z,89.74
2018-05-09T04:41:35.448Z,89.45
2018-05-09T04:42:35.700Z,89.12
2018-05-09T04:43:35.944Z,89.21
2018-05-09T04:44:36.175Z,89.12
2018-05-09T04:45:36.415Z,88.26
2018-05-09T04:46:36.666Z,88.35
2018-05-09T04:47:36.902Z,88.35
2018-05-09T04:48:37.139Z,88.07
2018-05-09T04:49:37.380Z,87.68
2018-05-09T04:50:37.614Z,87.87
2018-05-09T04:51:37.848Z,87.40
2018-05-09T04:52:38.189Z,87.49
2018-05-09T04:53:38.374Z,87.49
2018-05-09T04:54:38.585Z,87.73
2018-05-09T04:55:38.994Z,87.82
2018-05-09T04:56:39.060Z,87.44
2018-05-09T04:57:39.292Z,87.25
2018-05-09T04:58:39.533Z,87.06
2018-05-09T04:59:39.758Z,86.96
2018-05-09T05:00:39.992Z,86.39
2018-05-09T05:01:40.236Z,86.30
2018-05-09T05:02:40.466Z,86.01
2018-05-09T05:03:40.705Z,85.53
2018-05-09T05:04:40.942Z,85.58
2018-05-09T05:05:41.186Z,85.29
2018-05-09T05:06:41.431Z,85.10
2018-05-09T05:07:41.694Z,85.19
2018-05-09T05:08:41.905Z,85.29
2018-05-09T05:09:42.153Z,85.00
2018-05-09T05:10:42.375Z,84.81
2018-05-09T05:11:42.619Z,84.05
2018-05-09T05:12:42.865Z,83.47
2018-05-09T05:13:43.098Z,83.18
2018-05-09T05:14:43.350Z,83.38
2018-05-09T05:15:43.607Z,83.38
2018-05-09T05:16:43.824Z,83.61
2018-05-09T05:17:44.076Z,83.51
2018-05-09T05:18:44.318Z,83.42
2018-05-09T05:19:44.563Z,83.70
2018-05-09T05:20:44.779Z,82.84
2018-05-09T05:21:45.049Z,82.56
2018-05-09T05:22:45.285Z,82.18
2018-05-09T05:23:45.525Z,82.08
2018-05-09T05:24:45.759Z,82.22
2018-05-09T05:25:46.014Z,81.07
2018-05-09T05:26:46.237Z,80.98
2018-05-09T05:27:46.480Z,80.69
2018-05-09T05:28:46.707Z,80.30
2018-05-09T05:29:46.974Z,79.58
2018-05-09T05:30:47.219Z,79.87
2018-05-09T05:31:47.482Z,79.77
2018-05-09T05:32:47.786Z,79.29
2018-05-09T05:33:48.002Z,78.81
2018-05-09T05:34:48.242Z,78.72
2018-05-09T05:35:48.474Z,78.14
2018-05-09T05:36:48.723Z,77.67
2018-05-09T05:37:48.966Z,79.87
2018-05-09T05:38:49.253Z,81.49
2018-05-09T05:39:49.492Z,81.68
2018-05-09T05:40:49.747Z,81.40
2018-05-09T05:41:49.989Z,81.21
2018-05-09T05:42:50.232Z,80.67
2018-05-09T05:43:50.491Z,79.39
2018-05-09T05:44:50.772Z,79.29
2018-05-09T05:45:50.951Z,79.29
2018-05-09T05:46:51.204Z,79.62
2018-05-09T05:47:51.427Z,78.53
2018-05-09T05:48:51.673Z,79.24
2018-05-09T05:49:51.924Z,79.52
2018-05-09T05:50:52.163Z,78.66
2018-05-09T05:51:52.453Z,78.47
2018-05-09T05:52:52.696Z,77.75
2018-05-09T05:53:52.938Z,76.89
2018-05-09T05:54:53.177Z,76.69
2018-05-09T05:55:53.437Z,75.93
2018-05-09T05:56:53.698Z,76.12
2018-05-09T05:57:53.947Z,75.77
2018-05-09T05:58:54.179Z,75.01
2018-05-09T05:59:54.441Z,74.15
2018-05-09T06:00:54.767Z,74.52
2018-05-09T06:01:54.987Z,74.52
2018-05-09T06:02:55.215Z,74.52
2018-05-09T06:03:55.466Z,74.57
2018-05-09T06:04:55.700Z,73.70
2018-05-09T06:05:56.011Z,73.13
2018-05-09T06:06:56.259Z,72.74
2018-05-09T06:07:56.553Z,71.02
2018-05-09T06:08:56.750Z,72.55
2018-05-09T06:09:56.996Z,73.61
2018-05-09T06:10:57.233Z,73.22
2018-05-09T06:11:57.565Z,73.90
2018-05-09T06:12:57.765Z,75.04
2018-05-09T06:13:58.003Z,75.37
2018-05-09T06:14:58.275Z,75.08
2018-05-09T06:15:58.485Z,75.37
2018-05-09T06:16:58.858Z,74.69
2018-05-09T06:17:59.085Z,74.83
2018-05-09T06:18:59.331Z,72.91
2018-05-09T06:19:59.578Z,72.53
2018-05-09T06:20:59.820Z,71.86
2018-05-09T06:22:00.080Z,71.86
2018-05-09T06:23:00.307Z,71.47
2018-05-09T06:24:00.627Z,71.57
2018-05-09T06:25:00.792Z,71.28
2018-05-09T06:26:01.043Z,70.70
2018-05-09T06:27:01.295Z,70.70
2018-05-09T06:28:01.524Z,70.70
2018-05-09T06:29:01.768Z,70.74
2018-05-09T06:30:02.027Z,70.07
2018-05-09T06:31:02.330Z,69.84
2018-05-09T06:32:02.503Z,70.70
2018-05-09T06:33:02.747Z,71.28
2018-05-09T06:34:02.992Z,71.66
2018-05-09T06:35:03.240Z,70.55
2018-05-09T06:36:03.486Z,70.26
2018-05-09T06:37:03.731Z,68.76
2018-05-09T06:38:03.977Z,68.57
2018-05-09T06:39:04.225Z,67.51
2018-05-09T06:40:04.471Z,66.74
2018-05-09T06:41:04.716Z,67.16
2018-05-09T06:42:04.965Z,66.68
2018-05-09T06:43:05.215Z,66.58
2018-05-09T06:44:05.449Z,66.49
2018-05-09T06:45:05.696Z,65.94
2018-05-09T06:46:05.943Z,66.61
2018-05-09T06:47:06.188Z,66.04
2018-05-09T06:48:06.436Z,66.23
2018-05-09T06:49:06.681Z,66.42
2018-05-09T06:50:07.010Z,66.52
2018-05-09T06:51:07.177Z,65.40
2018-05-09T06:52:07.417Z,65.20
2018-05-09T06:53:07.665Z,65.20
2018-05-09T06:54:07.909Z,65.11
2018-05-09T06:55:08.155Z,64.37
2018-05-09T06:56:08.418Z,62.57
2018-05-09T06:57:08.652Z,60.80
2018-05-09T06:58:08.892Z,58.75
2018-05-09T06:59:09.170Z,54.36
2018-05-09T07:00:09.386Z,52.67
2018-05-09T07:01:09.635Z,50.04
2018-05-09T07:02:09.877Z,47.81
2018-05-09T07:03:10.123Z,47.24
2018-05-09T07:04:10.374Z,48.25
2018-05-09T07:05:10.622Z,48.74
2018-05-09T07:06:10.979Z,49.34
2018-05-09T07:07:11.125Z,47.94
2018-05-09T07:08:11.359Z,47.04
2018-05-09T07:09:11.605Z,48.39
2018-05-09T07:10:11.864Z,48.37
2018-05-09T07:11:12.096Z,48.81
2018-05-09T07:12:12.347Z,48.27
2018-05-09T07:13:12.584Z,50.74
2018-05-09T07:14:12.836Z,53.59
2018-05-09T07:15:13.077Z,55.33
2018-05-09T07:16:13.320Z,53.74
2018-05-09T07:17:13.567Z,52.80
2018-05-09T07:18:13.847Z,52.58
2018-05-09T07:19:14.073Z,52.02
2018-05-09T07:20:14.305Z,50.04
2018-05-09T07:21:14.553Z,47.60
2018-05-09T07:22:14.812Z,46.38
2018-05-09T07:23:15.114Z,44.48
2018-05-09T07:24:15.301Z,42.49
2018-05-09T07:25:15.557Z,39.39
2018-05-09T07:26:15.805Z,38.34
2018-05-09T07:27:16.055Z,36.90
2018-05-09T07:28:16.307Z,37.77
2018-05-09T07:29:16.560Z,37.29
2018-05-09T07:30:16.813Z,35.86
2018-05-09T07:31:17.062Z,34.32
2018-05-09T07:32:17.314Z,33.44
2018-05-09T07:33:17.566Z,34.22
2018-05-09T07:34:17.816Z,34.14
2018-05-09T07:35:18.068Z,35.61
2018-05-09T07:36:18.319Z,32.89
2018-05-09T07:37:18.574Z,33.18
2018-05-09T07:38:18.825Z,33.11
2018-05-09T07:39:19.087Z,38.57
2018-05-09T07:40:19.329Z,41.86
2018-05-09T07:41:19.583Z,40.37
2018-05-09T07:42:19.865Z,39.88
2018-05-09T07:43:20.088Z,39.59
2018-05-09T07:44:20.337Z,37.27
2018-05-09T07:45:20.589Z,35.94
2018-05-09T07:46:20.843Z,34.12
2018-05-09T07:47:21.095Z,36.06
2018-05-09T07:48:21.352Z,35.49
2018-05-09T07:49:21.604Z,38.75
2018-05-09T07:50:21.858Z,40.17
2018-05-09T07:51:22.112Z,38.73
2018-05-09T07:52:22.365Z,37.35
2018-05-09T07:53:22.622Z,38.57
2018-05-09T07:54:22.875Z,38.83
2018-05-09T07:55:23.130Z,38.21
2018-05-09T07:56:23.381Z,36.32
2018-05-09T07:57:23.637Z,37.35
2018-05-09T07:58:23.891Z,35.29
2018-05-09T07:59:24.144Z,35.53
2018-05-09T08:00:24.401Z,35.10
2018-05-09T08:01:24.653Z,32.87
2018-05-09T08:02:24.908Z,33.46
2018-05-09T08:03:25.161Z,33.58
2018-05-09T08:04:25.415Z,32.23
2018-05-09T08:05:25.669Z,30.68
2018-05-09T08:06:25.931Z,30.86
2018-05-09T08:07:26.180Z,30.26
2018-05-09T08:08:26.435Z,30.73
2018-05-09T08:09:26.688Z,31.31
2018-05-09T08:10:26.944Z,30.73
2018-05-09T08:11:27.194Z,31.41
2018-05-09T08:12:27.448Z,30.05
2018-05-09T08:13:27.702Z,30.88
2018-05-09T08:14:27.961Z,32.06
2018-05-09T08:15:28.211Z,32.82
2018-05-09T08:16:28.471Z,33.82
2018-05-09T08:17:28.726Z,33.23
2018-05-09T08:18:28.977Z,31.59
2018-05-09T08:19:29.233Z,31.67
2018-05-09T08:20:29.488Z,33.14
2018-05-09T08:21:29.744Z,32.65
2018-05-09T08:22:29.998Z,32.05
2018-05-09T08:23:30.255Z,32.62
2018-05-09T08:24:30.511Z,34.17
2018-05-09T08:25:30.771Z,32.26
2018-05-09T08:26:31.022Z,32.08
2018-05-09T08:27:31.278Z,33.33
2018-05-09T08:28:31.533Z,31.22
2018-05-09T08:29:31.790Z,31.22
2018-05-09T08:30:32.045Z,30.05
2018-05-09T08:31:32.299Z,30.52
2018-05-09T08:32:32.557Z,31.01
2018-05-09T08:33:32.810Z,32.71
2018-05-09T08:34:33.065Z,31.48
2018-05-09T08:35:33.321Z,30.93
2018-05-09T08:36:33.619Z,30.70
2018-05-09T08:37:33.830Z,29.93
2018-05-09T08:38:34.085Z,31.02
2018-05-09T08:39:34.336Z,29.07
2018-05-09T08:40:34.588Z,29.18
2018-05-09T08:41:34.844Z,29.27
2018-05-09T08:42:35.097Z,29.20
2018-05-09T08:43:35.363Z,28.42
2018-05-09T08:44:35.608Z,29.69
2018-05-09T08:45:35.864Z,27.93
2018-05-09T08:46:36.120Z,27.93
2018-05-09T08:47:36.373Z,28.04
2018-05-09T08:48:36.632Z,28.71
2018-05-09T08:49:36.887Z,28.03
2018-05-09T08:50:37.148Z,29.10
2018-05-09T08:51:37.400Z,28.89
2018-05-09T08:52:37.654Z,29.27
2018-05-09T08:53:37.911Z,29.35
2018-05-09T08:54:38.168Z,30.22
2018-05-09T08:55:38.427Z,29.25
2018-05-09T08:56:38.681Z,29.07
2018-05-09T08:57:38.936Z,29.38
2018-05-09T08:58:39.194Z,28.79
2018-05-09T08:59:39.451Z,29.60
2018-05-09T09:00:39.705Z,30.76
2018-05-09T09:01:39.961Z,30.45
2018-05-09T09:02:40.218Z,29.08
2018-05-09T09:03:40.478Z,28.78
2018-05-09T09:04:40.734Z,29.92
2018-05-09T09:05:40.997Z,30.91
2018-05-09T09:06:41.253Z,30.71
2018-05-09T09:07:41.503Z,29.86
2018-05-09T09:08:41.762Z,29.66
2018-05-09T09:09:42.017Z,29.83
2018-05-09T09:10:42.278Z,28.69
2018-05-09T09:11:42.529Z,30.37
2018-05-09T09:12:42.786Z,29.70
2018-05-09T09:13:43.042Z,31.04
2018-05-09T09:14:43.297Z,29.36
2018-05-09T09:15:43.568Z,29.27
2018-05-09T09:16:43.808Z,31.02
2018-05-09T09:17:44.065Z,30.49
2018-05-09T09:18:44.333Z,30.99
2018-05-09T09:19:44.577Z,33.14
2018-05-09T09:20:44.865Z,31.88
2018-05-09T09:21:45.092Z,30.60
2018-05-09T09:22:45.358Z,30.90
2018-05-09T09:23:45.606Z,32.35
2018-05-09T09:24:45.867Z,30.99
2018-05-09T09:25:46.124Z,30.54
2018-05-09T09:26:46.379Z,29.67
2018-05-09T09:27:46.636Z,31.41
2018-05-09T09:28:46.901Z,29.66
2018-05-09T09:29:47.156Z,30.63
2018-05-09T09:30:47.412Z,31.12
2018-05-09T09:31:47.664Z,32.19
2018-05-09T09:32:47.921Z,31.90
2018-05-09T09:33:48.175Z,30.84
2018-05-09T09:34:48.433Z,30.29
2018-05-09T09:35:48.688Z,29.90
2018-05-09T09:36:48.945Z,29.79
2018-05-09T09:37:49.202Z,28.43
2018-05-09T09:38:49.459Z,29.86
2018-05-09T09:39:49.719Z,30.83
2018-05-09T09:40:49.974Z,30.35
2018-05-09T09:41:50.232Z,31.51
2018-05-09T09:42:50.486Z,31.33
2018-05-09T09:43:50.744Z,30.76
2018-05-09T09:44:51.001Z,29.53
2018-05-09T09:45:51.259Z,28.26
2018-05-09T09:46:51.521Z,29.60
2018-05-09T09:47:51.774Z,29.80
2018-05-09T09:48:52.031Z,28.71
2018-05-09T09:49:52.289Z,29.70
2018-05-09T09:50:52.544Z,30.93
2018-05-09T09:51:52.801Z,31.33
2018-05-09T09:52:53.057Z,29.00
2018-05-09T09:53:53.313Z,29.69
2018-05-09T09:54:53.568Z,30.19
2018-05-09T09:55:53.827Z,28.59
2018-05-09T09:56:54.084Z,29.20
2018-05-09T09:57:54.342Z,30.16
2018-05-09T09:58:54.601Z,29.77
2018-05-09T09:59:54.859Z,29.95
2018-05-09T10:00:55.118Z,29.75
2018-05-09T10:01:55.374Z,29.86
2018-05-09T10:02:55.640Z,29.69
2018-05-09T10:03:55.888Z,29.60
2018-05-09T10:04:56.147Z,30.27
2018-05-09T10:05:56.404Z,30.18
2018-05-09T10:06:56.661Z,30.08
2018-05-09T10:07:57.009Z,29.69
2018-05-09T10:08:57.179Z,29.96
2018-05-09T10:09:57.451Z,31.67
2018-05-09T10:10:57.684Z,34.09
2018-05-09T10:11:57.943Z,33.07
2018-05-09T10:12:58.205Z,30.84
2018-05-09T10:13:58.456Z,30.15
2018-05-09T10:14:58.716Z,30.44
2018-05-09T10:15:59.023Z,31.31
2018-05-09T10:16:59.229Z,30.57
2018-05-09T10:17:59.487Z,30.58
2018-05-09T10:18:59.743Z,29.31
2018-05-09T10:20:00.004Z,29.13
2018-05-09T10:21:00.260Z,31.07
2018-05-09T10:22:00.517Z,30.40
2018-05-09T10:23:00.773Z,28.06
2018-05-09T10:24:01.033Z,27.98
2018-05-09T10:25:01.290Z,29.25
2018-05-09T10:26:01.550Z,27.10
2018-05-09T10:27:01.805Z,28.00
2018-05-09T10:28:02.063Z,30.51
2018-05-09T10:29:02.320Z,28.78
2018-05-09T10:30:02.579Z,29.93
2018-05-09T10:31:02.841Z,28.55
2018-05-09T10:32:03.093Z,27.23
2018-05-09T10:33:03.351Z,26.64
2018-05-09T10:34:03.611Z,26.35
2018-05-09T10:35:03.873Z,27.31
2018-05-09T10:36:04.131Z,28.29
2018-05-09T10:37:04.385Z,28.69
2018-05-09T10:38:04.648Z,27.84
2018-05-09T10:39:04.907Z,26.67
2018-05-09T10:40:05.168Z,26.58
2018-05-09T10:41:05.422Z,25.66
2018-05-09T10:42:05.679Z,27.33
2018-05-09T10:43:05.939Z,27.34
2018-05-09T10:44:06.198Z,27.14
2018-05-09T10:45:06.455Z,28.18
2018-05-09T10:46:06.713Z,29.44
2018-05-09T10:47:06.971Z,29.55
2018-05-09T10:48:07.231Z,29.85
2018-05-09T10:49:07.491Z,28.50
2018-05-09T10:50:07.746Z,28.29
2018-05-09T10:51:08.003Z,28.36
2018-05-09T10:52:08.261Z,29.17
2018-05-09T10:53:08.515Z,28.89
2018-05-09T10:54:08.775Z,29.25
2018-05-09T10:55:09.038Z,33.26
2018-05-09T10:56:09.297Z,38.60
2018-05-09T10:57:09.575Z,39.36
2018-05-09T10:58:09.817Z,34.63
2018-05-09T10:59:10.072Z,32.03
2018-05-09T11:00:10.331Z,31.38
2018-05-09T11:01:10.591Z,32.23
2018-05-09T11:02:10.849Z,30.79
2018-05-09T11:03:11.111Z,29.42
2018-05-09T11:04:11.364Z,29.81
2018-05-09T11:05:11.675Z,29.34
2018-05-09T11:06:11.886Z,28.19
2018-05-09T11:07:12.141Z,26.55
2018-05-09T11:08:12.405Z,26.65
2018-05-09T11:09:12.663Z,27.25
2018-05-09T11:10:12.923Z,26.75
2018-05-09T11:11:13.183Z,27.14
2018-05-09T11:12:13.441Z,25.98
2018-05-09T11:13:13.703Z,26.26
2018-05-09T11:14:13.963Z,28.14
2018-05-09T11:15:14.226Z,30.16
2018-05-09T11:16:14.481Z,31.28
2018-05-09T11:17:14.744Z,32.86
2018-05-09T11:18:15.012Z,30.19
2018-05-09T11:19:15.266Z,28.08
2018-05-09T11:20:15.524Z,31.11
2018-05-09T11:21:15.787Z,29.08
2018-05-09T11:22:16.045Z,27.52
2018-05-09T11:23:16.304Z,26.46
2018-05-09T11:24:16.580Z,27.15
2018-05-09T11:25:16.825Z,25.39
2018-05-09T11:26:17.087Z,25.10
2018-05-09T11:27:17.353Z,25.42
2018-05-09T11:28:17.627Z,24.06
2018-05-09T11:29:17.913Z,23.94
2018-05-09T11:30:18.200Z,23.66
2018-05-09T11:31:18.541Z,24.15
2018-05-09T11:32:18.721Z,26.75
2018-05-09T11:33:18.981Z,26.54
2018-05-09T11:34:19.278Z,25.65
2018-05-09T11:35:19.525Z,25.46
2018-05-09T11:36:19.786Z,28.30
2018-05-09T11:37:20.142Z,29.27
2018-05-09T11:38:20.372Z,29.49
2018-05-09T11:39:20.632Z,26.61
2018-05-09T11:40:20.894Z,26.37
2018-05-09T11:41:21.158Z,27.23
2018-05-09T11:42:21.417Z,28.69
2018-05-09T11:43:21.678Z,28.49
2018-05-09T11:44:21.942Z,28.77
2018-05-09T11:45:22.197Z,28.39
2018-05-09T11:46:22.459Z,26.35
2018-05-09T11:47:22.719Z,26.58
2018-05-09T11:48:22.977Z,25.61
2018-05-09T11:49:23.243Z,23.77
2018-05-09T11:50:23.497Z,24.06
2018-05-09T11:51:23.808Z,24.93
2018-05-09T11:52:24.062Z,23.39
2018-05-09T11:53:24.358Z,22.93
2018-05-09T11:54:24.631Z,23.14
2018-05-09T11:55:24.914Z,22.15
2018-05-09T11:56:25.204Z,22.74
2018-05-09T11:57:25.502Z,21.84
2018-05-09T11:58:25.762Z,23.40
2018-05-09T11:59:26.021Z,25.16
2018-05-09T12:00:26.296Z,25.44
2018-05-09T12:01:26.560Z,27.95
2018-05-09T12:02:26.868Z,29.43
2018-05-09T12:03:27.154Z,29.96
2018-05-09T12:04:27.474Z,29.83
2018-05-09T12:05:27.784Z,27.14
2018-05-09T12:06:28.051Z,29.08
2018-05-09T12:07:28.360Z,26.89
2018-05-09T12:08:28.614Z,25.10
2018-05-09T12:09:28.911Z,27.44
2018-05-09T12:10:29.309Z,29.03
2018-05-09T12:11:29.438Z,32.65
2018-05-09T12:12:29.743Z,34.14
2018-05-09T12:13:30.000Z,35.57
2018-05-09T12:14:30.305Z,34.25
2018-05-09T12:15:30.602Z,32.87
2018-05-09T12:16:30.906Z,34.40
2018-05-09T12:17:31.161Z,34.17
2018-05-09T12:18:31.419Z,32.34
2018-05-09T12:19:31.737Z,32.70
2018-05-09T12:20:31.997Z,31.31
2018-05-09T12:21:32.255Z,31.28
2018-05-09T12:22:32.513Z,29.99
2018-05-09T12:23:32.767Z,29.44
2018-05-09T12:24:33.072Z,30.59
2018-05-09T12:25:33.281Z,28.36
2018-05-09T12:26:33.567Z,28.47
2018-05-09T12:27:33.832Z,27.00
2018-05-09T12:28:34.090Z,27.44
2018-05-09T12:29:34.461Z,28.29
2018-05-09T12:30:34.719Z,31.60
2018-05-09T12:31:34.976Z,31.59
2018-05-09T12:32:35.219Z,33.70
2018-05-09T12:33:35.478Z,37.06
2018-05-09T12:34:35.770Z,37.39
2018-05-09T12:35:36.028Z,34.44
2018-05-09T12:36:36.398Z,31.74
2018-05-09T12:37:36.646Z,29.91
2018-05-09T12:38:37.006Z,28.75
2018-05-09T12:39:37.268Z,26.73
2018-05-09T12:40:37.524Z,25.70
2018-05-09T12:41:37.781Z,23.78
2018-05-09T12:42:38.137Z,23.20
2018-05-09T12:43:38.392Z,23.19
2018-05-09T12:44:38.649Z,25.55
2018-05-09T12:45:38.906Z,24.74
2018-05-09T12:46:39.167Z,25.51
2018-05-09T12:47:39.426Z,25.23
2018-05-09T12:48:39.732Z,24.68
2018-05-09T12:49:39.934Z,23.93
2018-05-09T12:50:40.193Z,22.89
2018-05-09T12:51:40.449Z,26.68
2018-05-09T12:52:40.708Z,26.95
2018-05-09T12:53:40.968Z,26.79
2018-05-09T12:54:41.286Z,25.12
2018-05-09T12:55:41.487Z,24.65